createdAt,value
2019-01-09T19:21:28.886Z,93755.97
2019-01-09T19:24:01.244Z,93758.16
2019-01-09T19:26:32.746Z,93742.65
2019-01-09T19:29:04.298Z,93761.24
2019-01-09T19:31:36.006Z,93754.96
2019-01-09T19:34:07.327Z,93758.84
2019-01-09T19:36:38.510Z,93752.20
2019-01-09T19:39:10.558Z,93753.55
2019-01-09T19:41:41.814Z,93751.80
2019-01-09T19:44:13.265Z,93744.48
2019-01-09T19:46:45.613Z,93742.89
2019-01-09T19:49:18.015Z,93744.11
2019-01-09T19:51:49.213Z,93749.30
2019-01-09T19:54:20.376Z,93747.91
2019-01-09T19:56:51.868Z,93746.28
2019-01-09T19:59:23.132Z,93746.70
2019-01-09T20:01:54.259Z,93749.34
2019-01-09T20:04:25.454Z,93752.26
2019-01-09T20:06:56.588Z,93751.88
2019-01-09T20:09:27.926Z,93758.98
2019-01-09T20:11:59.127Z,93755.11
2019-01-09T20:14:30.554Z,93749.17
2019-01-09T20:17:03.041Z,93745.60
2019-01-09T20:19:34.645Z,93745.44
2019-01-09T20:22:05.921Z,93749.03
2019-01-09T20:24:37.364Z,93741.23
2019-01-09T20:27:08.610Z,93745.53
2019-01-09T20:29:40.251Z,93750.05
2019-01-09T20:32:11.389Z,93755.73
2019-01-09T20:34:42.695Z,93760.64
2019-01-09T20:37:14.355Z,93754.69
2019-01-09T20:39:45.792Z,93754.75
2019-01-09T20:42:16.908Z,93761.34
2019-01-09T20:44:48.022Z,93759.53
2019-01-09T20:47:19.874Z,93760.70
2019-01-09T20:49:51.134Z,93759.98
2019-01-09T20:52:22.374Z,93762.95
2019-01-09T20:54:54.279Z,93757.87
2019-01-09T20:57:25.422Z,93764.14
2019-01-09T20:59:56.585Z,93755.52
2019-01-09T21:02:28.066Z,93758.40
2019-01-09T21:04:59.719Z,93760.95
2019-01-09T21:07:31.054Z,93750.83
2019-01-09T21:10:02.204Z,93756.48
2019-01-09T21:12:33.433Z,93755.23
2019-01-09T21:15:05.216Z,93756.79
2019-01-09T21:17:36.319Z,93762.16
2019-01-09T21:20:10.177Z,93756.37
2019-01-09T21:22:41.521Z,93763.52
2019-01-09T21:25:13.044Z,93754.50
2019-01-09T21:27:44.896Z,93742.83
2019-01-09T21:30:18.296Z,93750.85
2019-01-09T21:32:50.730Z,93746.27
2019-01-09T21:35:24.468Z,93749.09
2019-01-09T21:37:56.856Z,93739.80
2019-01-09T21:40:30.497Z,93738.52
2019-01-09T21:43:03.028Z,93738.06
2019-01-09T21:45:35.184Z,93742.36
2019-01-09T21:48:08.654Z,93741.48
2019-01-09T21:50:39.880Z,93742.92
2019-01-09T21:53:11.972Z,93745.44
2019-01-09T21:55:44.146Z,93751.36
2019-01-09T21:58:15.956Z,93750.63
2019-01-09T22:00:50.276Z,93752.55
2019-01-09T22:03:23.226Z,93747.60
2019-01-09T22:05:56.427Z,93740.05
2019-01-09T22:08:27.756Z,93745.84
2019-01-09T22:10:59.683Z,93747.94
2019-01-09T22:13:31.837Z,93742.84
2019-01-09T22:16:05.365Z,93745.68
2019-01-09T22:18:36.691Z,93740.05
2019-01-09T22:21:08.789Z,93746.98
2019-01-09T22:23:40.547Z,93738.22
2019-01-09T22:26:11.690Z,93742.00
2019-01-09T22:28:43.250Z,93742.13
2019-01-09T22:31:15.246Z,93745.91
2019-01-09T22:33:47.787Z,93742.13
2019-01-09T22:36:19.207Z,93745.00
2019-01-09T22:38:51.750Z,93741.10
2019-01-09T22:41:25.511Z,93741.94
2019-01-09T22:43:57.947Z,93742.33
2019-01-09T22:46:30.946Z,93744.09
2019-01-09T22:49:02.755Z,93758.15
2019-01-09T22:51:34.054Z,93750.70
2019-01-09T22:54:07.505Z,93762.22
2019-01-09T22:56:39.698Z,93745.91
2019-01-09T22:59:11.935Z,93752.86
2019-01-09T23:01:45.056Z,93757.05
2019-01-09T23:04:17.136Z,93764.16
2019-01-09T23:06:48.758Z,93761.98
2019-01-09T23:09:21.536Z,93762.47
2019-01-09T23:11:53.769Z,93767.81
2019-01-09T23:14:25.973Z,93764.80
2019-01-09T23:16:57.184Z,93758.74
2019-01-09T23:19:28.825Z,93754.98
2019-01-09T23:22:01.009Z,93748.62
2019-01-09T23:24:33.226Z,93742.83
2019-01-09T23:27:06.618Z,93751.73
2019-01-09T23:29:37.871Z,93752.13
2019-01-09T23:32:09.747Z,93747.06
2019-01-09T23:34:43.326Z,93745.86
2019-01-09T23:37:14.822Z,93749.64
2019-01-09T23:39:48.050Z,93747.50
2019-01-09T23:42:30.063Z,93739.08
2019-01-09T23:44:54.268Z,93738.03
2019-01-09T23:47:25.992Z,93747.42
2019-01-09T23:50:00.603Z,93752.94
2019-01-09T23:52:33.395Z,93748.76
2019-01-09T23:55:06.745Z,93751.77
2019-01-09T23:57:37.866Z,93747.52
